Big Bear Station Historical Data
Daily Summary for January 22, 2017 Units:  English    Metric   Both
« Previous Day
Next Day »
Daily Weekly Monthly Yearly Custom
  High: Low: Average:
Temperature: 36.0 °F 26.8 °F 30.7 °F
Dew Point: 35.7 °F 23.2 °F 29 °F
Humidity: 99 % 82 % 93 %
Wind Speed: 12.5 mph 0.0 mph 1.4 mph
Wind Gust: 24.8 mph - -
Wind:- - SW
Pressure: 23.42 in 23.22 in -
Precipitation: 0.92 in    
Historical Graphs
 
 
Tabular Data for January 22, 2017
Time Temperature Dew Point Pressure Wind Wind Speed Wind Gust Humidity Rainfall Rate (Hourly)
00:00 27.3 °F 26.8 °F 23.40 in Calm   -999.0 mph 98 % 0 in
00:15 27.1 °F 26.6 °F 23.40 in Calm   -999.0 mph 98 % 0 in
00:30 27.1 °F 26.1 °F 23.40 in Calm   -999.0 mph 96 % 0 in
00:45 27.1 °F 25.1 °F 23.40 in Calm   -999.0 mph 92 % 0 in
01:01 27.3 °F 24.8 °F 23.39 in Calm   -999.0 mph 90 % 0 in
01:16 27.7 °F 24.3 °F 23.40 in Calm   -999.0 mph 87 % 0 in
01:31 28.0 °F 23.2 °F 23.39 in Calm   -999.0 mph 82 % 0 in
01:46 27.7 °F 23.8 °F 23.39 in Calm   -999.0 mph 85 % 0 in
02:02 27.3 °F 24.2 °F 23.39 in Calm   -999.0 mph 88 % 0 in
02:17 26.8 °F 24.0 °F 23.40 in Calm   -999.0 mph 89 % 0 in
02:32 26.8 °F 24.0 °F 23.40 in Calm   -999.0 mph 89 % 0 in
02:47 26.8 °F 24.0 °F 23.39 in Calm   -999.0 mph 89 % 0 in
03:02 26.8 °F 24.0 °F 23.39 in Calm   -999.0 mph 89 % 0 in
03:18 27.0 °F 24.2 °F 23.39 in Calm   -999.0 mph 89 % 0 in
03:33 27.0 °F 24.5 °F 23.38 in Calm   -999.0 mph 90 % 0 in
03:48 27.1 °F 24.6 °F 23.38 in Calm   -999.0 mph 90 % 0 in
04:03 27.1 °F 24.8 °F 23.38 in Calm   -999.0 mph 91 % 0 in
04:18 27.1 °F 25.6 °F 23.38 in Calm   -999.0 mph 94 % 0 in
04:34 27.3 °F 25.8 °F 23.39 in Calm   -999.0 mph 94 % 0 in
04:49 27.0 °F 25.5 °F 23.39 in Calm   -999.0 mph 94 % 0 in
05:04 27.0 °F 25.5 °F 23.38 in Calm   -999.0 mph 94 % 0 in
05:19 27.0 °F 25.5 °F 23.37 in Calm   -999.0 mph 94 % 0 in
05:34 27.0 °F 25.2 °F 23.38 in Calm   -999.0 mph 93 % 0 in
05:50 27.1 °F 25.1 °F 23.39 in Calm   -999.0 mph 92 % 0 in
06:05 27.1 °F 25.1 °F 23.40 in Calm   -999.0 mph 92 % 0 in
06:20 27.3 °F 25.5 °F 23.40 in Calm   -999.0 mph 93 % 0 in
06:35 27.3 °F 25.5 °F 23.41 in Calm   -999.0 mph 93 % 0 in
06:50 27.1 °F 25.6 °F 23.41 in Calm   -999.0 mph 94 % 0 in
07:06 27.3 °F 25.5 °F 23.41 in Calm   -999.0 mph 93 % 0 in
07:21 27.5 °F 25.5 °F 23.41 in Calm   -999.0 mph 92 % 0 in
07:36 27.5 °F 25.0 °F 23.40 in Calm   -999.0 mph 90 % 0 in
07:51 28.2 °F 25.4 °F 23.40 in Calm   -999.0 mph 89 % 0 in
08:06 28.2 °F 25.9 °F 23.42 in Calm   -999.0 mph 91 % 0 in
08:22 29.1 °F 26.5 °F 23.42 in Calm   -999.0 mph 90 % 0 in
08:37 30.6 °F 27.5 °F 23.41 in Calm   -999.0 mph 88 % 0 in
08:52 29.7 °F 26.6 °F 23.41 in Calm   -999.0 mph 88 % 0 in
09:07 29.7 °F 26.3 °F 23.41 in Calm   -999.0 mph 87 % 0 in
09:23 29.8 °F 26.7 °F 23.42 in Calm   -999.0 mph 88 % 0 in
09:38 30.2 °F 26.8 °F 23.42 in Calm   -999.0 mph 87 % 0 in
09:53 29.8 °F 26.7 °F 23.42 in Calm   -999.0 mph 88 % 0 in
10:08 29.7 °F 26.3 °F 23.41 in Calm   -999.0 mph 87 % 0 in
10:23 31.8 °F 27.2 °F 23.40 in Calm   -999.0 mph 83 % 0 in
10:39 34.3 °F 29.4 °F 23.40 in Calm   -999.0 mph 82 % 0 in
10:54 32.7 °F 27.8 °F 23.39 in Calm   -999.0 mph 82 % 0 in
11:09 32.9 °F 28.6 °F 23.38 in Calm   -999.0 mph 84 % 0 in
11:24 31.3 °F 28.2 °F 23.38 in Calm   -999.0 mph 88 % 0 in
11:39 30.7 °F 28.1 °F 23.38 in Calm   -999.0 mph 90 % 0 in
11:57 32.9 °F 29.5 °F 23.35 in Calm   -999.0 mph 87 % 0 in
12:12 32.7 °F 29.8 °F 23.35 in Calm   -999.0 mph 89 % 0 in
12:29 32.2 °F 29.6 °F 23.34 in Calm   -999.0 mph 90 % 0 in
12:44 31.6 °F 29.5 °F 23.33 in Calm   -999.0 mph 92 % 0 in
12:59 31.8 °F 29.7 °F 23.33 in Calm   -999.0 mph 92 % 0 in
13:15 31.5 °F 29.7 °F 23.31 in Calm   -999.0 mph 93 % 0 in
13:30 31.3 °F 29.8 °F 23.30 in Calm   -999.0 mph 94 % 0 in
13:45 30.9 °F 29.6 °F 23.30 in Calm   -999.0 mph 95 % 0 in
14:00 31.3 °F 29.8 °F 23.29 in Calm   -999.0 mph 94 % 0 in
14:15 31.1 °F 29.8 °F 23.30 in Calm   -999.0 mph 95 % 0 in
14:30 31.1 °F 30.3 °F 23.29 in Calm   -999.0 mph 97 % 0 in
14:46 31.8 °F 31.0 °F 23.28 in Calm   -999.0 mph 97 % 0 in
15:03 32.0 °F 31.2 °F 23.27 in Calm   -999.0 mph 97 % 0 in
15:18 32.2 °F 31.4 °F 23.27 in Calm   -999.0 mph 97 % 0 in
15:33 32.4 °F 31.6 °F 23.28 in Calm   -999.0 mph 97 % 0 in
15:48 32.5 °F 31.7 °F 23.28 in Calm   -999.0 mph 97 % 0 in
16:04 32.5 °F 31.7 °F 23.27 in Calm   -999.0 mph 97 % 0 in
16:19 32.4 °F 31.9 °F 23.27 in Calm   -999.0 mph 98 % 0 in
16:34 32.5 °F 32.0 °F 23.27 in Calm   -999.0 mph 98 % 0 in
16:49 32.9 °F 32.4 °F 23.26 in Calm   -999.0 mph 98 % 0 in
17:04 32.9 °F 32.4 °F 23.25 in Calm   -999.0 mph 98 % 0 in
17:19 33.1 °F 32.6 °F 23.25 in Calm   -999.0 mph 98 % 0 in
17:35 33.3 °F 32.8 °F 23.26 in Calm   -999.0 mph 98 % 0 in
17:50 33.4 °F 32.9 °F 23.26 in Calm   -999.0 mph 98 % 0 in
18:05 33.8 °F 33.3 °F 23.26 in Calm   -999.0 mph 98 % 0 in
18:21 34.0 °F 33.5 °F 23.25 in Calm   -999.0 mph 98 % 0 in
18:36 34.3 °F 33.8 °F 23.25 in SSW 3.7 mph -999.0 mph 98 % 0 in
18:52 34.5 °F 34.2 °F 23.25 in ESE 3.7 mph -999.0 mph 99 % 0 in
19:07 34.7 °F 34.4 °F 23.25 in West 3.7 mph -999.0 mph 99 % 0 in
19:22 35.1 °F 34.8 °F 23.25 in West 3.2 mph -999.0 mph 99 % 0 in
19:37 35.2 °F 34.9 °F 23.25 in WSW 6.8 mph -999.0 mph 99 % 0 in
19:52 35.8 °F 35.5 °F 23.24 in NW 10.9 mph -999.0 mph 99 % 0 in
20:08 36.0 °F 35.7 °F 23.25 in ESE 4.7 mph 19.1 mph 99 % 0 in
20:23 36.0 °F 35.7 °F 23.24 in South 4.7 mph 24.8 mph 99 % 0 in
20:38 35.6 °F 35.3 °F 23.24 in North 5.3 mph -999.0 mph 99 % 0 in
20:54 34.7 °F 34.2 °F 23.23 in South 12.5 mph -999.0 mph 98 % 0 in
21:09 34.3 °F 33.5 °F 23.23 in SSW 3.7 mph -999.0 mph 97 % 0 in
21:24 34.7 °F 34.2 °F 23.23 in WSW 8.3 mph -999.0 mph 98 % 0 in
21:39 34.2 °F 33.7 °F 23.23 in SW 3.7 mph 21.7 mph 98 % 0 in
21:55 34.0 °F 33.2 °F 23.24 in West 10.4 mph -999.0 mph 97 % 0 in
22:10 33.3 °F 32.5 °F 23.25 in NW 9.4 mph 18.1 mph 97 % 0 in
22:25 32.4 °F 31.6 °F 23.25 in SSW 6.3 mph -999.0 mph 97 % 0 in
22:40 31.8 °F 31.0 °F 23.25 in South 8.3 mph -999.0 mph 97 % 0 in
22:56 31.6 °F 31.4 °F 23.26 in ESE 5.8 mph -999.0 mph 99 % 0 in
23:11 31.6 °F 31.4 °F 23.24 in SSW 6.8 mph -999.0 mph 99 % 0 in
23:26 31.6 °F 31.4 °F 23.24 in SW 4.7 mph -999.0 mph 99 % 0 in
23:42 31.6 °F 31.4 °F 23.22 in South 4.7 mph -999.0 mph 99 % 0 in
23:58 31.6 °F 31.1 °F 23.22 in SW 4.7 mph -999.0 mph 98 % 0 in
Big Bear CA Weather
Compliments of Weather Underground - 1.5 mb